Time;durP1;ratioP1;P1;durP2;ratioP2;P2;SDS_P1;SDS_P2;PMS_P1;PMS_P2;Temp;Humidity;BMP_temperature;BMP_pressure;BME280_temperature;BME280_humidity;BME280_pressure;Samples;Min_cycle;Max_cycle;Signal;HPM_P1;HPM_P2
2023/03/19 00:02:08;;;;;;;8.88;3.72;;;;;;;-145.01;100.00;64805.59;5082677;28;20454;-60
2023/03/19 00:04:33;;;;;;;9.77;4.28;;;;;;;-145.01;100.00;64805.59;5086336;28;20032;-60
2023/03/19 00:06:59;;;;;;;10.57;4.15;;;;;;;-145.01;100.00;64805.59;5083074;28;20973;-60
2023/03/19 00:09:26;;;;;;;11.32;5.22;;;;;;;-145.01;100.00;64805.59;5084425;28;20064;-59
2023/03/19 00:11:51;;;;;;;26.20;9.25;;;;;;;-145.01;100.00;64805.59;5077815;28;20028;-58
2023/03/19 00:14:17;;;;;;;20.50;9.10;;;;;;;-145.01;100.00;64805.59;5088833;28;20044;-60
2023/03/19 00:16:42;;;;;;;22.85;9.75;;;;;;;-145.01;100.00;64805.59;5082505;28;20039;-60
2023/03/19 00:19:08;;;;;;;38.30;16.98;;;;;;;-145.01;100.00;64805.59;5086659;28;20445;-59
2023/03/19 00:21:34;;;;;;;26.52;13.82;;;;;;;-145.01;100.00;64805.59;5087547;28;20039;-60
2023/03/19 00:24:02;;;;;;;25.75;11.18;;;;;;;-145.01;100.00;64805.59;5083181;28;20035;-60
2023/03/19 00:26:28;;;;;;;22.73;11.43;;;;;;;-145.01;100.00;64805.59;5077980;28;20039;-60
2023/03/19 00:28:54;;;;;;;15.65;8.45;;;;;;;-145.01;100.00;64805.59;5082772;28;20024;-60
2023/03/19 00:31:20;;;;;;;13.02;5.70;;;;;;;-145.01;100.00;64805.59;5093820;28;20035;-60
2023/03/19 00:33:46;;;;;;;13.10;6.03;;;;;;;-145.01;100.00;64805.59;5086879;28;20056;-60
2023/03/19 00:36:11;;;;;;;14.45;7.13;;;;;;;-145.01;100.00;64805.59;5078578;28;20029;-60
2023/03/19 00:38:37;;;;;;;18.85;9.15;;;;;;;-145.01;100.00;64805.59;5068744;28;20078;-61
2023/03/19 00:41:04;;;;;;;17.73;7.53;;;;;;;-145.01;100.00;64805.59;5080382;28;20039;-59
2023/03/19 00:43:29;;;;;;;22.00;8.35;;;;;;;-145.01;100.00;64805.59;5089571;28;20027;-60
2023/03/19 00:45:55;;;;;;;16.38;6.30;;;;;;;-145.01;100.00;64805.59;5085300;28;20490;-59
2023/03/19 00:48:20;;;;;;;9.35;5.30;;;;;;;-145.01;100.00;64805.59;5084902;28;20019;-60
2023/03/19 00:50:47;;;;;;;11.82;5.75;;;;;;;-145.01;100.00;64805.59;5090813;28;20447;-60
2023/03/19 00:53:12;;;;;;;8.45;5.25;;;;;;;-145.01;100.00;64805.59;5084023;28;20366;-59
2023/03/19 00:55:37;;;;;;;11.00;5.32;;;;;;;-145.01;100.00;64805.59;5079526;28;20021;-60
2023/03/19 00:58:05;;;;;;;13.05;6.05;;;;;;;-145.01;100.00;64805.59;5083053;28;20028;-60
2023/03/19 01:00:31;;;;;;;13.55;5.60;;;;;;;-145.01;100.00;64805.59;5082029;28;20450;-60
2023/03/19 01:02:57;;;;;;;13.18;5.22;;;;;;;-145.01;100.00;64805.59;5087391;28;20036;-60
2023/03/19 01:05:22;;;;;;;10.18;5.70;;;;;;;-145.01;100.00;64805.59;5085906;28;20116;-60
2023/03/19 01:07:48;;;;;;;11.43;4.60;;;;;;;-145.01;100.00;64805.59;5079628;28;20123;-60
2023/03/19 01:10:16;;;;;;;9.25;3.70;;;;;;;-145.01;100.00;64805.59;5065009;28;20054;-60
2023/03/19 01:12:42;;;;;;;7.43;3.22;;;;;;;-145.01;100.00;64805.59;5080987;28;20024;-60
2023/03/19 01:15:08;;;;;;;10.82;3.63;;;;;;;-145.01;100.00;64805.59;5085685;28;20535;-60
2023/03/19 01:17:33;;;;;;;9.25;4.00;;;;;;;-145.01;100.00;64805.59;5072816;28;20028;-60
2023/03/19 01:19:58;;;;;;;11.23;4.78;;;;;;;-145.01;100.00;64805.59;5078226;28;20024;-60
2023/03/19 01:22:25;;;;;;;11.43;4.20;;;;;;;-145.01;100.00;64805.59;5070279;28;20032;-60
2023/03/19 01:24:50;;;;;;;11.32;4.20;;;;;;;-145.01;100.00;64805.59;5085071;28;20424;-59
2023/03/19 01:27:16;;;;;;;6.45;3.20;;;;;;;-145.01;100.00;64805.59;5087201;28;20485;-59
2023/03/19 01:29:41;;;;;;;6.65;3.63;;;;;;;-145.01;100.00;64805.59;5087059;28;20019;-59
2023/03/19 01:32:07;;;;;;;6.53;3.00;;;;;;;-145.01;100.00;64805.59;5087956;28;20032;-59
2023/03/19 01:34:32;;;;;;;10.57;3.20;;;;;;;-145.01;100.00;64805.59;5081813;28;20023;-59
2023/03/19 01:36:58;;;;;;;6.63;3.03;;;;;;;-145.01;100.00;64805.59;5069418;28;20032;-60
2023/03/19 01:39:23;;;;;;;6.90;3.00;;;;;;;-145.01;100.00;64805.59;5077359;28;20069;-60
2023/03/19 01:41:48;;;;;;;6.47;2.88;;;;;;;-145.01;100.00;64805.59;5091519;28;20035;-59
2023/03/19 01:44:26;;;;;;;8.68;2.90;;;;;;;-145.01;100.00;64805.59;5088914;28;20024;-59
2023/03/19 01:46:52;;;;;;;8.85;2.75;;;;;;;-145.01;100.00;64805.59;5080210;28;20120;-59
2023/03/19 01:49:17;;;;;;;7.65;3.20;;;;;;;-145.01;100.00;64805.59;5060859;28;20028;-59
2023/03/19 01:51:44;;;;;;;8.40;2.90;;;;;;;-145.01;100.00;64805.59;5063988;28;20024;-60
2023/03/19 01:54:12;;;;;;;8.75;3.08;;;;;;;-145.01;100.00;64805.59;5080296;28;20056;-60
2023/03/19 01:56:38;;;;;;;7.75;2.92;;;;;;;-145.01;100.00;64805.59;5064261;28;20016;-59
2023/03/19 01:59:07;;;;;;;8.40;3.42;;;;;;;-145.01;100.00;64805.59;5055726;28;20346;-59
2023/03/19 02:01:33;;;;;;;7.32;2.70;;;;;;;-145.01;100.00;64805.59;5085712;28;20063;-60
2023/03/19 02:03:59;;;;;;;8.02;2.83;;;;;;;-145.01;100.00;64805.59;5035553;28;20381;-59
2023/03/19 02:06:25;;;;;;;6.60;2.92;;;;;;;-145.01;100.00;64805.59;5068483;28;20947;-59
2023/03/19 02:08:51;;;;;;;6.60;2.70;;;;;;;-145.01;100.00;64805.59;5087757;28;20031;-59
2023/03/19 02:11:16;;;;;;;8.82;3.30;;;;;;;-145.01;100.00;64805.59;5077434;28;20036;-59
2023/03/19 02:13:42;;;;;;;7.10;2.95;;;;;;;-145.01;100.00;64805.59;5052292;28;20048;-59
2023/03/19 02:16:08;;;;;;;8.70;2.97;;;;;;;-145.01;100.00;64805.59;5040075;28;20036;-60
2023/03/19 02:18:33;;;;;;;6.63;2.85;;;;;;;-145.01;100.00;64805.59;5062172;28;20029;-59
2023/03/19 02:21:09;;;;;;;7.97;2.90;;;;;;;-145.01;100.00;64805.59;5050920;28;20067;-60
2023/03/19 02:23:36;;;;;;;7.50;3.20;;;;;;;-145.01;100.00;64805.59;5046112;28;20031;-59
2023/03/19 02:26:06;;;;;;;5.97;3.08;;;;;;;-145.01;100.00;64805.59;5057426;28;20037;-59
2023/03/19 02:28:31;;;;;;;6.63;3.00;;;;;;;-145.01;100.00;64805.59;5037215;28;20477;-60
2023/03/19 02:30:57;;;;;;;9.25;2.78;;;;;;;-145.01;100.00;64805.59;5055958;28;20133;-59
2023/03/19 02:33:22;;;;;;;6.03;2.78;;;;;;;-145.01;100.00;64805.59;5062024;28;20047;-60
2023/03/19 02:35:49;;;;;;;5.93;3.22;;;;;;;-145.01;100.00;64805.59;5061983;28;20419;-60
2023/03/19 02:38:14;;;;;;;5.45;2.85;;;;;;;-145.01;100.00;64805.59;5056826;28;20056;-59
2023/03/19 02:40:47;;;;;;;8.80;3.20;;;;;;;-145.01;100.00;64805.59;5060955;28;20668;-59
2023/03/19 02:43:12;;;;;;;13.13;3.40;;;;;;;-145.01;100.00;64805.59;5057404;28;20368;-60
2023/03/19 02:45:38;;;;;;;7.20;2.90;;;;;;;-145.01;100.00;64805.59;5065977;28;20036;-59
2023/03/19 02:48:03;;;;;;;10.68;3.80;;;;;;;-145.01;100.00;64805.59;5059097;28;20041;-59
2023/03/19 02:50:29;;;;;;;6.07;3.20;;;;;;;-145.01;100.00;64805.59;5063971;28;20092;-61
2023/03/19 02:52:55;;;;;;;9.00;2.90;;;;;;;-145.01;100.00;64805.59;5061905;28;20143;-61
2023/03/19 02:55:21;;;;;;;8.48;3.20;;;;;;;-145.01;100.00;64805.59;5065351;28;20510;-60
2023/03/19 02:57:46;;;;;;;9.35;3.17;;;;;;;-145.01;100.00;64805.59;5054561;28;20200;-59
2023/03/19 03:00:12;;;;;;;10.77;3.65;;;;;;;-145.01;100.00;64805.59;5056196;28;20059;-60
2023/03/19 03:02:38;;;;;;;7.25;3.20;;;;;;;-145.01;100.00;64805.59;5067555;28;20155;-59
2023/03/19 03:05:05;;;;;;;5.70;2.75;;;;;;;-145.01;100.00;64805.59;5058625;28;20037;-59
2023/03/19 03:07:31;;;;;;;8.55;3.78;;;;;;;-145.01;100.00;64805.59;5057115;28;20028;-59
2023/03/19 03:09:57;;;;;;;8.45;3.65;;;;;;;-145.01;100.00;64805.59;5059630;28;20028;-59
2023/03/19 03:12:22;;;;;;;8.70;3.58;;;;;;;-145.01;100.00;64805.59;5058319;28;20024;-59
2023/03/19 03:14:48;;;;;;;6.03;3.00;;;;;;;-145.01;100.00;64805.59;5052878;28;20128;-59
2023/03/19 03:17:14;;;;;;;10.30;3.20;;;;;;;-145.01;100.00;64805.59;5066248;28;20040;-60
2023/03/19 03:19:39;;;;;;;11.77;3.80;;;;;;;-145.01;100.00;64805.59;5066171;28;20032;-59
2023/03/19 03:22:05;;;;;;;6.97;3.40;;;;;;;-145.01;100.00;64805.59;5069367;28;20135;-59
2023/03/19 03:24:30;;;;;;;10.45;3.20;;;;;;;-145.01;100.00;64805.59;5065088;28;20513;-59
2023/03/19 03:26:56;;;;;;;6.30;3.30;;;;;;;-145.01;100.00;64805.59;5058428;28;20056;-59
2023/03/19 03:29:21;;;;;;;5.50;2.95;;;;;;;-145.01;100.00;64805.59;5051809;28;20032;-59
2023/03/19 03:31:47;;;;;;;8.30;3.55;;;;;;;-145.01;100.00;64805.59;5068368;28;20228;-59
2023/03/19 03:34:12;;;;;;;8.93;3.38;;;;;;;-145.01;100.00;64805.59;5061778;28;20378;-59
2023/03/19 03:36:38;;;;;;;6.45;2.83;;;;;;;-145.01;100.00;64805.59;5066214;28;20051;-59
2023/03/19 03:39:03;;;;;;;7.28;3.50;;;;;;;-145.01;100.00;64805.59;5064423;28;20027;-60
2023/03/19 03:41:29;;;;;;;10.63;3.20;;;;;;;-145.01;100.00;64805.59;5065874;28;20387;-60
2023/03/19 03:43:55;;;;;;;9.52;3.45;;;;;;;-145.01;100.00;64805.59;5059448;28;20029;-60
2023/03/19 03:46:20;;;;;;;7.85;3.30;;;;;;;-145.01;100.00;64805.59;5060383;28;20027;-60
2023/03/19 03:48:48;;;;;;;8.32;3.28;;;;;;;-145.01;100.00;64805.59;5057850;28;20094;-59
2023/03/19 03:51:13;;;;;;;10.35;3.65;;;;;;;-145.01;100.00;64805.59;5063709;28;20387;-59
2023/03/19 03:53:39;;;;;;;7.00;3.20;;;;;;;-145.01;100.00;64805.59;5061847;28;20598;-60
2023/03/19 03:56:05;;;;;;;9.18;3.25;;;;;;;-145.01;100.00;64805.59;5061106;28;20360;-60
2023/03/19 03:58:30;;;;;;;7.93;3.50;;;;;;;-145.01;100.00;64805.59;5052677;28;20262;-59
2023/03/19 04:00:55;;;;;;;5.47;3.33;;;;;;;-145.01;100.00;64805.59;5052625;28;20025;-59
2023/03/19 04:03:23;;;;;;;11.20;3.30;;;;;;;-145.01;100.00;64805.59;5067822;28;20032;-59
2023/03/19 04:05:48;;;;;;;6.75;3.35;;;;;;;-145.01;100.00;64805.59;5068046;28;20047;-59
2023/03/19 04:08:14;;;;;;;6.70;3.28;;;;;;;-145.01;100.00;64805.59;5057008;28;20433;-59
2023/03/19 04:10:41;;;;;;;7.05;3.30;;;;;;;-145.01;100.00;64805.59;5061514;28;20039;-60
2023/03/19 04:13:07;;;;;;;8.70;3.38;;;;;;;-145.01;100.00;64805.59;5064131;28;20029;-60
2023/03/19 04:15:33;;;;;;;9.20;3.42;;;;;;;-145.01;100.00;64805.59;5082485;28;20070;-60
2023/03/19 04:17:59;;;;;;;10.55;3.67;;;;;;;-145.01;100.00;64805.59;5090686;28;20405;-60
2023/03/19 04:20:26;;;;;;;9.25;3.80;;;;;;;-145.01;100.00;64805.59;5081475;28;20070;-60
2023/03/19 04:22:52;;;;;;;6.60;3.22;;;;;;;-145.01;100.00;64805.59;5084082;28;20077;-59
2023/03/19 04:25:17;;;;;;;7.90;3.20;;;;;;;-145.01;100.00;64805.59;5091819;28;20020;-59
2023/03/19 04:27:43;;;;;;;10.88;3.22;;;;;;;-145.01;100.00;64805.59;5058034;28;20024;-60
2023/03/19 04:30:10;;;;;;;6.53;3.47;;;;;;;-145.01;100.00;64805.59;5082744;28;20726;-59
2023/03/19 04:32:35;;;;;;;9.43;3.25;;;;;;;-145.01;100.00;64805.59;5086015;28;20497;-60
2023/03/19 04:35:02;;;;;;;6.57;3.50;;;;;;;-145.01;100.00;64805.59;5083925;28;20056;-59
2023/03/19 04:37:27;;;;;;;8.50;3.70;;;;;;;-145.01;100.00;64805.59;5071981;28;20020;-60
2023/03/19 04:39:53;;;;;;;6.90;3.25;;;;;;;-145.01;100.00;64805.59;5084099;28;20025;-60
2023/03/19 04:42:19;;;;;;;8.35;3.65;;;;;;;-145.01;100.00;64805.59;5087207;28;20070;-60
2023/03/19 04:44:44;;;;;;;7.75;3.50;;;;;;;-145.01;100.00;64805.59;5060899;28;20028;-60
2023/03/19 04:47:10;;;;;;;10.55;3.40;;;;;;;-145.01;100.00;64805.59;5081628;28;20032;-59
2023/03/19 04:49:35;;;;;;;10.35;3.67;;;;;;;-145.01;100.00;64805.59;5097810;28;20103;-59
2023/03/19 04:52:01;;;;;;;6.75;3.85;;;;;;;-145.01;100.00;64805.59;5078148;28;20435;-59
2023/03/19 04:54:27;;;;;;;7.80;3.58;;;;;;;-145.01;100.00;64805.59;5091274;28;20474;-59
2023/03/19 04:56:52;;;;;;;9.32;3.22;;;;;;;-145.01;100.00;64805.59;5087663;28;20039;-60
2023/03/19 04:59:18;;;;;;;10.48;3.72;;;;;;;-145.01;100.00;64805.59;5062928;28;20761;-60
2023/03/19 05:01:43;;;;;;;8.07;3.88;;;;;;;-145.01;100.00;64805.59;5080655;28;20028;-60
2023/03/19 05:04:09;;;;;;;7.60;3.40;;;;;;;-145.01;100.00;64805.59;5086887;28;20028;-60
2023/03/19 05:06:36;;;;;;;10.40;3.88;;;;;;;-145.01;100.00;64805.59;5082591;28;20435;-60
2023/03/19 05:09:02;;;;;;;8.10;3.80;;;;;;;-145.01;100.00;64805.59;5053050;28;20525;-59
2023/03/19 05:11:28;;;;;;;8.23;3.97;;;;;;;-145.01;100.00;64805.59;5062868;28;20036;-59
2023/03/19 05:13:53;;;;;;;9.13;3.92;;;;;;;-145.01;100.00;64805.59;5085419;28;20472;-59
2023/03/19 05:16:19;;;;;;;9.60;3.67;;;;;;;-145.01;100.00;64805.59;5086299;28;20031;-59
2023/03/19 05:18:44;;;;;;;7.13;3.55;;;;;;;-145.01;100.00;64805.59;5084218;28;20029;-59
2023/03/19 05:21:13;;;;;;;9.07;4.15;;;;;;;-145.01;100.00;64805.59;5082229;28;20032;-59
2023/03/19 05:23:39;;;;;;;7.95;3.85;;;;;;;-145.01;100.00;64805.59;5059322;28;20486;-59
2023/03/19 05:26:05;;;;;;;7.43;3.28;;;;;;;-145.01;100.00;64805.59;5070433;28;20016;-60
2023/03/19 05:28:31;;;;;;;9.48;3.95;;;;;;;-145.01;100.00;64805.59;5081417;28;20035;-59
2023/03/19 05:30:56;;;;;;;12.40;3.72;;;;;;;-145.01;100.00;64805.59;5083594;28;20024;-60
2023/03/19 05:33:22;;;;;;;10.70;4.13;;;;;;;-145.01;100.00;64805.59;5094470;28;20462;-59
2023/03/19 05:35:47;;;;;;;9.10;4.50;;;;;;;-145.01;100.00;64805.59;5085626;28;20027;-59
2023/03/19 05:38:13;;;;;;;7.03;3.40;;;;;;;-145.01;100.00;64805.59;5067534;28;20081;-62
2023/03/19 05:40:40;;;;;;;8.32;3.85;;;;;;;-145.01;100.00;64805.59;5087774;28;20031;-60
2023/03/19 05:43:08;;;;;;;9.40;3.40;;;;;;;-145.01;100.00;64805.59;5082558;28;20035;-59
2023/03/19 05:45:33;;;;;;;7.22;3.72;;;;;;;-145.01;100.00;64805.59;5073017;28;20016;-59
2023/03/19 05:47:59;;;;;;;10.70;3.97;;;;;;;-145.01;100.00;64805.59;5082094;28;20423;-59
2023/03/19 05:50:24;;;;;;;9.05;3.97;;;;;;;-145.01;100.00;64805.59;5073426;28;20035;-60
2023/03/19 05:52:50;;;;;;;9.40;3.70;;;;;;;-145.01;100.00;64805.59;5078727;28;20459;-59
2023/03/19 05:55:16;;;;;;;9.80;3.65;;;;;;;-145.01;100.00;64805.59;5086103;28;20047;-59
2023/03/19 05:57:41;;;;;;;5.93;3.45;;;;;;;-145.01;100.00;64805.59;5089051;28;20019;-60
2023/03/19 06:00:07;;;;;;;8.45;3.70;;;;;;;-145.01;100.00;64805.59;5086574;28;20028;-60
2023/03/19 06:02:33;;;;;;;12.57;3.75;;;;;;;-145.01;100.00;64805.59;5079353;28;20024;-60
2023/03/19 06:04:59;;;;;;;8.05;3.90;;;;;;;-145.01;100.00;64805.59;5085887;28;20051;-59
2023/03/19 06:07:24;;;;;;;9.55;3.95;;;;;;;-145.01;100.00;64805.59;5075136;28;20459;-60
2023/03/19 06:09:50;;;;;;;6.35;3.70;;;;;;;-145.01;100.00;64805.59;5078970;28;20094;-60
2023/03/19 06:12:16;;;;;;;6.78;3.60;;;;;;;-145.01;100.00;64805.59;5091411;28;20037;-60
2023/03/19 06:14:41;;;;;;;9.13;4.30;;;;;;;-145.01;100.00;64805.59;5075023;28;20036;-60
2023/03/19 06:17:08;;;;;;;8.27;3.92;;;;;;;-145.01;100.00;64805.59;5089032;28;20029;-60
2023/03/19 06:19:33;;;;;;;7.30;3.40;;;;;;;-145.01;100.00;64805.59;5067862;28;20470;-59
2023/03/19 06:21:59;;;;;;;11.00;3.75;;;;;;;-145.01;100.00;64805.59;5075412;28;20031;-59
2023/03/19 06:24:24;;;;;;;7.90;3.83;;;;;;;-145.01;100.00;64805.59;5078335;28;20027;-60
2023/03/19 06:26:50;;;;;;;9.20;4.03;;;;;;;-145.01;100.00;64805.59;5082414;28;20031;-59
2023/03/19 06:29:15;;;;;;;9.00;3.67;;;;;;;-145.01;100.00;64805.59;5058862;28;20037;-59
2023/03/19 06:31:41;;;;;;;6.90;3.60;;;;;;;-145.01;100.00;64805.59;5083733;28;20024;-60
2023/03/19 06:34:06;;;;;;;8.52;4.10;;;;;;;-145.01;100.00;64805.59;5061838;28;20518;-60
2023/03/19 06:36:32;;;;;;;7.43;3.97;;;;;;;-145.01;100.00;64805.59;5085474;28;20755;-60
2023/03/19 06:38:57;;;;;;;7.18;3.97;;;;;;;-145.01;100.00;64805.59;5057084;28;20401;-60
2023/03/19 06:41:26;;;;;;;9.18;3.90;;;;;;;-145.01;100.00;64805.59;5087322;28;20028;-60
2023/03/19 06:43:52;;;;;;;8.30;3.85;;;;;;;-145.01;100.00;64805.59;5075342;28;20013;-60
2023/03/19 06:46:17;;;;;;;7.20;3.72;;;;;;;-145.01;100.00;64805.59;5079839;28;20569;-59
2023/03/19 06:48:43;;;;;;;12.63;4.75;;;;;;;-145.01;100.00;64805.59;5043746;28;20423;-58
2023/03/19 06:51:08;;;;;;;9.43;3.63;;;;;;;-145.01;100.00;64805.59;5087964;28;20518;-58
2023/03/19 06:53:34;;;;;;;6.22;3.88;;;;;;;-145.01;100.00;64805.59;5066497;28;20024;-59
2023/03/19 06:55:59;;;;;;;6.95;3.63;;;;;;;-145.01;100.00;64805.59;5074991;28;20078;-59
2023/03/19 06:58:25;;;;;;;8.10;3.35;;;;;;;-145.01;100.00;64805.59;5093043;28;20411;-59
2023/03/19 07:00:51;;;;;;;6.35;4.10;;;;;;;-145.01;100.00;64805.59;5083509;28;20031;-58
2023/03/19 07:03:16;;;;;;;12.02;3.97;;;;;;;-145.01;100.00;64805.59;5076669;28;20021;-59
2023/03/19 07:05:42;;;;;;;7.82;3.83;;;;;;;-145.01;100.00;64805.59;5082292;28;20792;-58
2023/03/19 07:08:10;;;;;;;9.23;3.80;;;;;;;-145.01;100.00;64805.59;5080405;28;20367;-59
2023/03/19 07:10:37;;;;;;;10.00;3.75;;;;;;;-145.01;100.00;64805.59;5078481;28;20028;-59
2023/03/19 07:13:03;;;;;;;9.60;4.07;;;;;;;-145.01;100.00;64805.59;5078817;28;20036;-58
2023/03/19 07:15:29;;;;;;;9.95;3.45;;;;;;;-145.01;100.00;64805.59;5084787;28;20456;-59
2023/03/19 07:17:56;;;;;;;9.00;3.72;;;;;;;-145.01;100.00;64805.59;5081376;28;20025;-59
2023/03/19 07:20:21;;;;;;;6.40;3.78;;;;;;;-145.01;100.00;64805.59;5084094;28;20039;-59
2023/03/19 07:22:49;;;;;;;8.30;3.65;;;;;;;-145.01;100.00;64805.59;5055194;28;20372;-59
2023/03/19 07:25:17;;;;;;;6.60;3.60;;;;;;;-145.01;100.00;64805.59;5077033;28;20103;-59
2023/03/19 07:27:43;;;;;;;10.82;5.13;;;;;;;-145.01;100.00;64805.59;5083127;28;20104;-59
2023/03/19 07:30:09;;;;;;;8.55;4.00;;;;;;;-145.01;100.00;64805.59;5080528;28;20024;-59
2023/03/19 07:32:35;;;;;;;7.82;4.18;;;;;;;-145.01;100.00;64805.59;5086460;28;20038;-60
2023/03/19 07:35:01;;;;;;;9.52;3.75;;;;;;;-145.01;100.00;64805.59;5059619;28;20024;-59
2023/03/19 07:37:26;;;;;;;11.35;3.80;;;;;;;-145.01;100.00;64805.59;5084850;28;20034;-59
2023/03/19 07:39:52;;;;;;;7.22;3.50;;;;;;;-145.01;100.00;64805.59;5074534;28;20024;-59
2023/03/19 07:42:17;;;;;;;8.02;3.28;;;;;;;-145.01;100.00;64805.59;5084178;28;20097;-59
2023/03/19 07:44:42;;;;;;;8.15;3.30;;;;;;;-145.01;100.00;64805.59;5086141;28;20082;-59
2023/03/19 07:47:08;;;;;;;7.88;3.70;;;;;;;-145.01;100.00;64805.59;5083489;28;20032;-60
2023/03/19 07:49:34;;;;;;;8.05;3.60;;;;;;;-145.01;100.00;64805.59;5082785;28;20027;-59
2023/03/19 07:51:59;;;;;;;7.28;3.50;;;;;;;-145.01;100.00;64805.59;5082293;28;20079;-59
2023/03/19 07:54:25;;;;;;;7.43;3.45;;;;;;;-145.01;100.00;64805.59;5079834;28;20027;-59
2023/03/19 07:56:50;;;;;;;8.20;3.22;;;;;;;-145.01;100.00;64805.59;5063306;28;20402;-59
2023/03/19 07:59:15;;;;;;;8.07;4.30;;;;;;;-145.01;100.00;64805.59;5069107;28;20032;-59
2023/03/19 08:01:41;;;;;;;5.97;3.15;;;;;;;-145.01;100.00;64805.59;5079719;28;20032;-59
2023/03/19 08:04:06;;;;;;;10.40;3.42;;;;;;;-145.01;100.00;64805.59;5083155;28;20033;-59
2023/03/19 08:06:32;;;;;;;6.47;3.50;;;;;;;-145.01;100.00;64805.59;5082047;28;20584;-58
2023/03/19 08:08:57;;;;;;;5.38;3.05;;;;;;;-145.01;100.00;64805.59;5076054;28;20028;-58
2023/03/19 08:11:23;;;;;;;6.45;3.20;;;;;;;-145.01;100.00;64805.59;5082755;28;20024;-60
2023/03/19 08:13:48;;;;;;;7.07;3.20;;;;;;;-145.01;100.00;64805.59;5062074;28;20037;-60
2023/03/19 08:16:14;;;;;;;10.00;3.40;;;;;;;-145.01;100.00;64805.59;5067556;28;20368;-59
2023/03/19 08:18:39;;;;;;;8.50;3.40;;;;;;;-145.01;100.00;64805.59;5067418;28;20043;-59
2023/03/19 08:21:05;;;;;;;8.32;3.30;;;;;;;-145.01;100.00;64805.59;5057849;28;20454;-58
2023/03/19 08:23:31;;;;;;;6.57;3.17;;;;;;;-145.01;100.00;64805.59;5066165;28;20024;-59
2023/03/19 08:25:56;;;;;;;10.50;3.53;;;;;;;-145.01;100.00;64805.59;5063813;28;20383;-59
2023/03/19 08:28:22;;;;;;;5.78;3.00;;;;;;;-145.01;100.00;64805.59;5074688;28;20032;-59
2023/03/19 08:30:48;;;;;;;7.75;3.30;;;;;;;-145.01;100.00;64805.59;5065189;28;20025;-59
2023/03/19 08:33:13;;;;;;;5.20;3.10;;;;;;;-145.01;100.00;64805.59;5068060;28;20631;-59
2023/03/19 08:35:38;;;;;;;5.78;3.03;;;;;;;-145.01;100.00;64805.59;5059239;28;20483;-59
2023/03/19 08:38:04;;;;;;;7.47;3.22;;;;;;;-145.01;100.00;64805.59;5062315;28;20036;-59
2023/03/19 08:40:29;;;;;;;6.95;3.15;;;;;;;-145.01;100.00;64805.59;5055793;28;20032;-58
2023/03/19 08:42:55;;;;;;;10.27;3.15;;;;;;;-145.01;100.00;64805.59;5057945;28;20035;-59
2023/03/19 08:45:21;;;;;;;7.78;3.35;;;;;;;-145.01;100.00;64805.59;5064922;28;20470;-59
2023/03/19 08:47:46;;;;;;;6.38;3.38;;;;;;;-145.01;100.00;64805.59;5065959;28;20111;-59
2023/03/19 08:50:12;;;;;;;9.10;3.08;;;;;;;-145.01;100.00;64805.59;5055394;28;20159;-60
2023/03/19 08:52:37;;;;;;;9.27;3.88;;;;;;;-145.01;100.00;64805.59;5064260;28;20423;-59
2023/03/19 08:55:03;;;;;;;7.30;3.45;;;;;;;-145.01;100.00;64805.59;5065412;28;20119;-60
2023/03/19 08:57:29;;;;;;;7.80;3.85;;;;;;;-145.01;100.00;64805.59;5066881;28;20023;-60
2023/03/19 08:59:55;;;;;;;9.30;3.65;;;;;;;-145.01;100.00;64805.59;5061975;28;20171;-60
2023/03/19 09:02:20;;;;;;;11.98;3.75;;;;;;;-145.01;100.00;64805.59;5070299;28;20285;-60
2023/03/19 09:04:46;;;;;;;8.98;4.00;;;;;;;-145.01;100.00;64805.59;5068382;28;20024;-60
2023/03/19 09:07:12;;;;;;;7.30;3.67;;;;;;;-145.01;100.00;64805.59;5061236;28;20067;-60
2023/03/19 09:09:38;;;;;;;11.57;4.13;;;;;;;-145.01;100.00;64805.59;5059793;28;20039;-59
2023/03/19 09:12:04;;;;;;;6.50;3.83;;;;;;;-145.01;100.00;64805.59;5058871;28;20040;-59
2023/03/19 09:14:29;;;;;;;9.77;4.20;;;;;;;-145.01;100.00;64805.59;5071041;28;20039;-59
2023/03/19 09:16:55;;;;;;;12.30;4.60;;;;;;;-145.01;100.00;64805.59;5064297;28;20025;-59
2023/03/19 09:19:22;;;;;;;14.00;3.90;;;;;;;-145.01;100.00;64805.59;5067749;28;20016;-59
2023/03/19 09:21:48;;;;;;;8.38;3.53;;;;;;;-145.01;100.00;64805.59;5049177;28;20033;-60
2023/03/19 09:24:13;;;;;;;5.60;3.30;;;;;;;-145.01;100.00;64805.59;5063034;28;20025;-60
2023/03/19 09:26:39;;;;;;;6.97;3.63;;;;;;;-145.01;100.00;64805.59;5057703;28;20392;-59
2023/03/19 09:29:04;;;;;;;8.00;3.17;;;;;;;-145.01;100.00;64805.59;5063875;28;20032;-59
2023/03/19 09:31:30;;;;;;;6.05;3.35;;;;;;;-145.01;100.00;64805.59;5076899;28;20362;-60
2023/03/19 09:33:55;;;;;;;9.98;3.67;;;;;;;-145.01;100.00;64805.59;5055809;28;20074;-60
2023/03/19 09:36:21;;;;;;;6.00;3.30;;;;;;;-145.01;100.00;64805.59;5069299;28;20065;-60
2023/03/19 09:38:46;;;;;;;8.30;3.30;;;;;;;-145.01;100.00;64805.59;5068692;28;20040;-60
2023/03/19 09:41:33;;;;;;;7.88;3.40;;;;;;;-145.01;100.00;64805.59;5044475;28;20054;-60
2023/03/19 09:44:16;;;;;;;7.50;3.45;;;;;;;-145.01;100.00;64805.59;5064039;28;20109;-60
2023/03/19 09:46:45;;;;;;;9.30;3.60;;;;;;;-145.01;100.00;64805.59;5062888;28;20028;-60
2023/03/19 09:49:21;;;;;;;8.15;3.75;;;;;;;-145.01;100.00;64805.59;5078419;28;20025;-60
2023/03/19 09:52:11;;;;;;;11.05;3.83;;;;;;;-145.01;100.00;64805.59;5052041;28;20465;-60
2023/03/19 09:54:51;;;;;;;7.50;4.13;;;;;;;-145.01;100.00;64805.59;5025014;28;20039;-60
2023/03/19 09:57:16;;;;;;;6.80;3.70;;;;;;;-145.01;100.00;64805.59;5063780;28;20566;-60
2023/03/19 09:59:42;;;;;;;6.57;3.83;;;;;;;-145.01;100.00;64805.59;5055285;28;20323;-60
2023/03/19 10:02:13;;;;;;;7.07;3.40;;;;;;;-145.01;100.00;64805.59;5053898;28;20025;-60
2023/03/19 10:04:49;;;;;;;7.82;3.60;;;;;;;-145.01;100.00;64805.59;5065710;28;20025;-60
2023/03/19 10:07:37;;;;;;;6.70;3.53;;;;;;;-145.01;100.00;64805.59;5062679;28;20064;-60
2023/03/19 10:10:16;;;;;;;6.70;3.35;;;;;;;-145.01;100.00;64805.59;5055863;28;20447;-60
2023/03/19 10:12:52;;;;;;;9.70;3.55;;;;;;;-145.01;100.00;64805.59;5060224;28;20029;-60
2023/03/19 10:15:31;;;;;;;6.80;3.25;;;;;;;-145.01;100.00;64805.59;5043600;28;20126;-59
2023/03/19 10:18:15;;;;;;;7.35;3.08;;;;;;;-145.01;100.00;64805.59;5055599;28;20045;-60
2023/03/19 10:20:48;;;;;;;7.40;2.90;;;;;;;-145.01;100.00;64805.59;5058638;28;20039;-59
2023/03/19 10:23:35;;;;;;;8.40;3.10;;;;;;;-145.01;100.00;64805.59;5062358;28;20339;-59
2023/03/19 10:26:02;;;;;;;4.93;2.63;;;;;;;-145.01;100.00;64805.59;5067361;28;20438;-59
2023/03/19 10:28:28;;;;;;;6.65;3.30;;;;;;;-145.01;100.00;64805.59;5058490;28;21459;-59
2023/03/19 10:31:19;;;;;;;5.55;2.80;;;;;;;-145.01;100.00;64805.59;5061525;28;20275;-59
2023/03/19 10:34:03;;;;;;;12.30;3.33;;;;;;;-145.01;100.00;64805.59;5054877;28;20107;-60
2023/03/19 10:36:32;;;;;;;4.50;2.50;;;;;;;-145.01;100.00;64805.59;5062234;28;20108;-59
2023/03/19 10:38:57;;;;;;;9.00;3.22;;;;;;;-145.01;100.00;64805.59;5057721;28;20787;-60
2023/03/19 10:41:41;;;;;;;9.88;3.22;;;;;;;-145.01;100.00;64805.59;5067122;28;20033;-59
2023/03/19 10:44:37;;;;;;;5.97;3.50;;;;;;;-145.01;100.00;64805.59;5057814;28;20036;-60
2023/03/19 10:47:10;;;;;;;6.65;3.20;;;;;;;-145.01;100.00;64805.59;5061083;28;20052;-60
2023/03/19 10:49:36;;;;;;;6.43;3.30;;;;;;;-145.01;100.00;64805.59;5061521;28;20189;-59
2023/03/19 10:52:01;;;;;;;6.47;3.00;;;;;;;-145.01;100.00;64805.59;5073971;28;20471;-59
2023/03/19 10:54:27;;;;;;;10.30;3.75;;;;;;;-145.01;100.00;64805.59;5072544;28;20032;-59
2023/03/19 10:56:59;;;;;;;7.03;3.58;;;;;;;-145.01;100.00;64805.59;5060575;28;20362;-60
2023/03/19 10:59:25;;;;;;;6.88;3.60;;;;;;;-145.01;100.00;64805.59;5068296;28;20313;-59
2023/03/19 11:02:01;;;;;;;7.32;4.05;;;;;;;-145.01;100.00;64805.59;5062872;28;20033;-60
2023/03/19 11:04:28;;;;;;;6.45;3.17;;;;;;;-145.01;100.00;64805.59;5054819;28;20025;-59
2023/03/19 11:07:13;;;;;;;7.28;3.90;;;;;;;-145.01;100.00;64805.59;5057178;28;20032;-60